Augusta, NJ (07822)

3:56 PM EST on November 26, 2014 (GMT -0500)
Frankford TWP | Change Station
CLOSE
Current Station
Personal Weather Station
Location: Augusta, NJ
Elevation: 506 ft
Nearby Weather Stations
Active Advisory: Winter Storm Warning Active Notice: Public Information Statement

Elev 506 ft 41.15 °N, 74.68 °W | Updated 5 seconds ago

Snow
Snow
32.4 °F
Feels Like 32 °F
N
2.0
Wind Variable Wind from NNE
Gusts 0.0 mph

Today
High -- | Low -- °F
--% Chance of Precip.
Yesterday
High -- | Low -- °F
Precip. -- in
6:59 AM 4:32 PM
Waxing Crescent, 22% visible
Pressure 29.90 in
Visibility 0.8 miles
Clouds Overcast 1200 ft
Windchill 32 °F
Dew Point 32 °F
Humidity 98%
Rainfall 0.02 in
Snow Depth Not available.
UV 10.0 out of 12
Pollen .10 out of 12
Air Quality Not available.
Flu Activity Not available.
METAR KFWN 262048Z AUTO 03009KT 3/4SM -SN BR OVC012 01/00 A2990 RMK AO2 P0004

More Conditions Fewer Conditions

Pressure 29.90 in
Visibility 0.8 miles
Clouds Overcast 1200 ft
Windchill 32 °F
Dew Point 32 °F
Humidity 98%
Rainfall 0.02 in
Snow Depth Not available.
UV 10.0 out of 12
Pollen .10 out of 12
Air Quality Not available.
Flu Activity Not available.
METAR KFWN 262048Z AUTO 03009KT 3/4SM -SN BR OVC012 01/00 A2990 RMK AO2 P0004

More Conditions Fewer Conditions

10-Day Weather Forecast

Almanac

Astronomy

Nov. 26, 2014 Rise Set
Actual Time
Civil Twilight
Nautical Twilight
Astronomical Twilight
Moon
Length of Visible Light
Length of Day
Tomorrow will be .
, % of the Moon is Illuminated

Today's Extremes

State Highs State Lows

Community

WunderPhotos

Upload Photos

1,773,860 photos uploaded!

WunderBlogs® & News

Nearby

Air Quality

  Air Quality AQ Index Pollutant
Not available.

Snow Depth

Station Depth Elevation

Earthquake Activity

City Distance Mag. Time & Date
Minimum magnitude displayed is 2.5.

Coastal Water Temperatures

Place Temperature

Nearby Weather Stations